createdAt,value
2023-10-09T00:00:09.381Z,4.30
2023-10-09T00:00:20.993Z,3.92
2023-10-09T00:00:33.154Z,3.83
2023-10-09T00:00:44.684Z,4.10
2023-10-09T00:00:56.060Z,3.90
2023-10-09T00:01:09.175Z,3.90
2023-10-09T00:01:20.544Z,3.90
2023-10-09T00:01:32.304Z,3.63
2023-10-09T00:01:45.552Z,3.88
2023-10-09T00:01:57.107Z,3.80
2023-10-09T00:02:13.070Z,3.80
2023-10-09T00:02:24.449Z,3.63
2023-10-09T00:02:35.921Z,3.60
2023-10-09T00:02:47.465Z,3.78
2023-10-09T00:02:59.020Z,4.10
2023-10-09T00:03:10.889Z,4.45
2023-10-09T00:03:22.684Z,3.88
2023-10-09T00:03:34.255Z,4.10
2023-10-09T00:03:46.416Z,4.10
2023-10-09T00:03:58.346Z,4.07
2023-10-09T00:04:09.927Z,4.55
2023-10-09T00:04:21.533Z,4.63
2023-10-09T00:04:33.067Z,4.72
2023-10-09T00:04:44.666Z,4.00
2023-10-09T00:04:56.074Z,4.28
2023-10-09T00:05:07.871Z,4.03
2023-10-09T00:05:19.279Z,4.10
2023-10-09T00:05:31.408Z,3.88
2023-10-09T00:05:42.892Z,3.85
2023-10-09T00:05:54.679Z,4.35
2023-10-09T00:06:06.441Z,4.30
2023-10-09T00:06:18.085Z,4.40
2023-10-09T00:06:29.753Z,4.28
2023-10-09T00:06:41.553Z,4.03
2023-10-09T00:06:53.174Z,4.13
2023-10-09T00:07:06.276Z,4.30
2023-10-09T00:07:18.085Z,4.22
2023-10-09T00:07:29.848Z,3.80
2023-10-09T00:07:41.264Z,3.65
2023-10-09T00:07:52.666Z,3.67
2023-10-09T00:08:04.615Z,4.07
2023-10-09T00:08:17.536Z,4.35
2023-10-09T00:08:28.978Z,4.35
2023-10-09T00:08:40.724Z,4.65
2023-10-09T00:08:52.153Z,4.20
2023-10-09T00:09:07.518Z,4.10
2023-10-09T00:09:18.996Z,4.30
2023-10-09T00:09:31.260Z,4.20
2023-10-09T00:09:42.762Z,3.90
2023-10-09T00:09:54.151Z,3.95
2023-10-09T00:10:06.036Z,4.50
2023-10-09T00:10:17.928Z,4.30
2023-10-09T00:10:29.401Z,4.10
2023-10-09T00:10:40.821Z,4.15
2023-10-09T00:10:53.236Z,4.45
2023-10-09T00:11:04.784Z,4.63
2023-10-09T00:11:16.211Z,4.28
2023-10-09T00:11:27.725Z,4.10
2023-10-09T00:11:39.175Z,3.88
2023-10-09T00:11:51.289Z,3.78
2023-10-09T00:12:02.719Z,4.05
2023-10-09T00:12:15.425Z,4.32
2023-10-09T00:12:28.522Z,4.10
2023-10-09T00:12:40.015Z,3.83
2023-10-09T00:12:51.403Z,3.90
2023-10-09T00:13:02.909Z,3.60
2023-10-09T00:13:14.424Z,3.97
2023-10-09T00:13:26.808Z,4.18
2023-10-09T00:13:38.278Z,3.95
2023-10-09T00:13:49.779Z,4.30
2023-10-09T00:14:01.192Z,4.43
2023-10-09T00:14:12.971Z,4.13
2023-10-09T00:14:29.992Z,3.95
2023-10-09T00:14:41.566Z,4.28
2023-10-09T00:14:53.467Z,4.25
2023-10-09T00:15:05.439Z,4.55
2023-10-09T00:15:17.105Z,4.68
2023-10-09T00:15:28.557Z,4.72
2023-10-09T00:15:40.019Z,4.40
2023-10-09T00:15:51.482Z,4.25
2023-10-09T00:16:06.811Z,4.35
2023-10-09T00:16:20.325Z,4.80
2023-10-09T00:16:31.803Z,4.72
2023-10-09T00:16:43.358Z,4.78
2023-10-09T00:16:54.847Z,4.35
2023-10-09T00:17:06.356Z,4.63
2023-10-09T00:17:20.978Z,4.80
2023-10-09T00:17:34.198Z,4.55
2023-10-09T00:17:45.660Z,4.40
2023-10-09T00:17:57.258Z,4.55
2023-10-09T00:18:08.882Z,4.68
2023-10-09T00:18:20.849Z,4.72
2023-10-09T00:18:32.596Z,4.05
2023-10-09T00:18:44.088Z,4.15
2023-10-09T00:18:55.552Z,4.13
2023-10-09T00:19:07.387Z,4.60
2023-10-09T00:19:18.835Z,4.43
2023-10-09T00:19:30.501Z,4.25
2023-10-09T00:19:42.288Z,3.88
2023-10-09T00:19:53.877Z,3.67
2023-10-09T00:20:09.362Z,3.70
2023-10-09T00:20:20.987Z,3.75
2023-10-09T00:20:37.334Z,4.28
2023-10-09T00:20:48.814Z,4.53
2023-10-09T00:21:00.225Z,4.47
2023-10-09T00:21:18.183Z,4.40
2023-10-09T00:21:29.688Z,3.90
2023-10-09T00:21:42.293Z,3.75
2023-10-09T00:21:53.796Z,3.63
2023-10-09T00:22:05.288Z,3.88
2023-10-09T00:22:18.150Z,3.92
2023-10-09T00:22:29.629Z,3.78
2023-10-09T00:22:41.118Z,3.75
2023-10-09T00:22:52.674Z,3.60
2023-10-09T00:23:04.123Z,3.55
2023-10-09T00:23:15.513Z,3.53
2023-10-09T00:23:27.063Z,3.72
2023-10-09T00:23:41.406Z,4.07
2023-10-09T00:23:52.844Z,3.85
2023-10-09T00:24:04.460Z,3.60
2023-10-09T00:24:16.639Z,3.60
2023-10-09T00:24:28.563Z,3.97
2023-10-09T00:24:39.982Z,3.90
2023-10-09T00:24:51.674Z,4.03
2023-10-09T00:25:03.169Z,4.13
2023-10-09T00:25:14.664Z,4.18
2023-10-09T00:25:26.338Z,4.15
2023-10-09T00:25:37.725Z,3.95
2023-10-09T00:25:50.465Z,3.88
2023-10-09T00:26:01.860Z,3.75
2023-10-09T00:26:13.270Z,3.70
2023-10-09T00:26:24.828Z,3.83
2023-10-09T00:26:36.858Z,4.00
2023-10-09T00:26:48.325Z,4.18
2023-10-09T00:26:59.791Z,3.95
2023-10-09T00:27:11.347Z,3.80
2023-10-09T00:27:22.950Z,3.47
2023-10-09T00:27:34.538Z,3.40
2023-10-09T00:27:46.574Z,3.53
2023-10-09T00:27:57.987Z,3.63
2023-10-09T00:28:09.438Z,3.85
2023-10-09T00:28:20.882Z,4.03
2023-10-09T00:28:32.306Z,4.22
2023-10-09T00:28:43.784Z,4.43
2023-10-09T00:28:55.271Z,4.10
2023-10-09T00:29:06.660Z,4.03
2023-10-09T00:29:18.204Z,4.07
2023-10-09T00:29:29.650Z,4.22
2023-10-09T00:29:41.745Z,4.20
2023-10-09T00:29:53.264Z,4.13
2023-10-09T00:30:05.291Z,3.97
2023-10-09T00:30:18.540Z,3.85
2023-10-09T00:30:30.141Z,3.58
2023-10-09T00:30:44.790Z,3.25
2023-10-09T00:30:56.661Z,3.75
2023-10-09T00:31:08.261Z,4.00
2023-10-09T00:31:20.417Z,3.90
2023-10-09T00:31:31.858Z,4.07
2023-10-09T00:31:43.454Z,4.50
2023-10-09T00:31:55.428Z,4.47
2023-10-09T00:32:07.921Z,4.47
2023-10-09T00:32:19.380Z,4.27
2023-10-09T00:32:30.828Z,4.00
2023-10-09T00:32:43.081Z,4.20
2023-10-09T00:32:54.994Z,4.20
2023-10-09T00:33:09.100Z,4.07
2023-10-09T00:33:20.745Z,4.25
2023-10-09T00:33:32.286Z,4.35
2023-10-09T00:33:44.027Z,4.30
2023-10-09T00:33:55.673Z,4.40
2023-10-09T00:34:07.204Z,4.32
2023-10-09T00:34:18.757Z,4.10
2023-10-09T00:34:30.885Z,3.83
2023-10-09T00:34:42.480Z,3.85
2023-10-09T00:34:54.511Z,3.75
2023-10-09T00:35:06.108Z,3.72
2023-10-09T00:35:18.602Z,4.10
2023-10-09T00:35:30.198Z,3.88
2023-10-09T00:35:41.892Z,3.95
2023-10-09T00:35:53.332Z,4.07
2023-10-09T00:36:05.907Z,4.20
2023-10-09T00:36:17.361Z,4.03
2023-10-09T00:36:28.891Z,3.95
2023-10-09T00:36:42.016Z,3.72
2023-10-09T00:36:55.235Z,3.70
2023-10-09T00:37:08.131Z,3.70
2023-10-09T00:37:20.131Z,3.88
2023-10-09T00:37:35.112Z,4.05
2023-10-09T00:37:46.631Z,3.70
2023-10-09T00:37:58.515Z,3.80
2023-10-09T00:38:10.210Z,4.30
2023-10-09T00:38:21.779Z,4.22
2023-10-09T00:38:37.552Z,3.88
2023-10-09T00:38:48.988Z,4.15
2023-10-09T00:39:00.456Z,4.50
2023-10-09T00:39:11.981Z,4.35
2023-10-09T00:39:23.500Z,4.13
2023-10-09T00:39:34.990Z,3.97
2023-10-09T00:39:46.887Z,4.20
2023-10-09T00:39:58.444Z,4.00
2023-10-09T00:40:10.226Z,3.90
2023-10-09T00:40:21.612Z,4.30
2023-10-09T00:40:33.186Z,4.53
2023-10-09T00:40:51.461Z,4.75
2023-10-09T00:41:02.869Z,4.00
2023-10-09T00:41:14.302Z,4.10
2023-10-09T00:41:25.795Z,4.53
2023-10-09T00:41:37.314Z,4.55
2023-10-09T00:41:49.122Z,4.32
2023-10-09T00:42:01.038Z,3.97
2023-10-09T00:42:13.033Z,3.88
2023-10-09T00:42:27.805Z,3.95
2023-10-09T00:42:39.458Z,4.03
2023-10-09T00:42:50.959Z,4.18
2023-10-09T00:43:03.354Z,4.50
2023-10-09T00:43:15.270Z,4.68
2023-10-09T00:43:26.730Z,4.18
2023-10-09T00:43:39.284Z,4.20
2023-10-09T00:43:50.798Z,4.35
2023-10-09T00:44:02.645Z,4.32
2023-10-09T00:44:14.244Z,4.30
2023-10-09T00:44:26.252Z,4.40
2023-10-09T00:44:37.679Z,4.45
2023-10-09T00:44:49.075Z,4.47
2023-10-09T00:45:00.823Z,4.38
2023-10-09T00:45:12.344Z,3.97
2023-10-09T00:45:23.970Z,3.45
2023-10-09T00:45:35.587Z,3.58
2023-10-09T00:45:48.084Z,4.05
2023-10-09T00:46:02.644Z,4.10
2023-10-09T00:46:14.160Z,3.80
2023-10-09T00:46:27.515Z,4.28
2023-10-09T00:46:39.034Z,4.38
2023-10-09T00:46:50.535Z,4.32
2023-10-09T00:47:02.011Z,4.03
2023-10-09T00:47:14.067Z,4.78
2023-10-09T00:47:25.642Z,5.10
2023-10-09T00:47:37.963Z,5.15
2023-10-09T00:47:49.941Z,5.30
2023-10-09T00:48:01.500Z,5.32
2023-10-09T00:48:14.194Z,4.93
2023-10-09T00:48:26.041Z,4.50
2023-10-09T00:48:37.823Z,4.80
2023-10-09T00:48:51.184Z,4.63
2023-10-09T00:49:03.003Z,3.80
2023-10-09T00:49:14.502Z,3.95
2023-10-09T00:49:27.593Z,4.18
2023-10-09T00:49:39.684Z,4.20
2023-10-09T00:49:53.483Z,4.57
2023-10-09T00:50:08.414Z,4.82
2023-10-09T00:50:19.849Z,4.13
2023-10-09T00:50:31.634Z,4.05
2023-10-09T00:50:43.598Z,5.38
2023-10-09T00:50:55.176Z,5.53
2023-10-09T00:51:08.072Z,5.95
2023-10-09T00:51:20.496Z,5.05
2023-10-09T00:51:32.080Z,4.82
2023-10-09T00:51:52.726Z,4.55
2023-10-09T00:52:04.427Z,4.97
2023-10-09T00:52:16.705Z,4.68
2023-10-09T00:52:33.188Z,4.55
2023-10-09T00:52:57.223Z,4.95
2023-10-09T00:53:08.825Z,4.45
2023-10-09T00:53:23.353Z,4.57
2023-10-09T00:53:34.780Z,4.85
2023-10-09T00:53:50.324Z,4.70
2023-10-09T00:54:03.810Z,4.70
2023-10-09T00:54:16.021Z,4.90
2023-10-09T00:54:27.901Z,5.15
2023-10-09T00:54:39.455Z,5.13
2023-10-09T00:54:58.943Z,5.15
2023-10-09T00:55:12.876Z,5.60
2023-10-09T00:55:24.466Z,5.70
2023-10-09T00:55:37.707Z,5.47
2023-10-09T00:55:49.065Z,4.70
2023-10-09T00:56:03.255Z,4.53
2023-10-09T00:56:15.156Z,4.70
2023-10-09T00:56:27.027Z,4.95
2023-10-09T00:56:38.559Z,4.93
2023-10-09T00:56:49.950Z,5.05
2023-10-09T00:57:01.388Z,5.15
2023-10-09T00:57:12.849Z,5.13
2023-10-09T00:57:24.401Z,4.43
2023-10-09T00:57:38.778Z,4.47
2023-10-09T00:57:52.823Z,4.65
2023-10-09T00:58:05.018Z,4.60
2023-10-09T00:58:17.463Z,4.75
2023-10-09T00:58:28.876Z,5.18
2023-10-09T00:58:40.490Z,5.20
2023-10-09T00:58:53.560Z,4.88
2023-10-09T00:59:05.229Z,4.93
2023-10-09T00:59:20.866Z,5.03
2023-10-09T00:59:34.325Z,5.05
2023-10-09T00:59:46.636Z,5.03
2023-10-09T01:00:00.824Z,4.85
2023-10-09T01:00:12.697Z,5.03
2023-10-09T01:00:24.655Z,5.15
2023-10-09T01:00:36.802Z,4.72
2023-10-09T01:00:48.293Z,4.93
2023-10-09T01:00:59.758Z,4.90
2023-10-09T01:01:11.174Z,5.40
2023-10-09T01:01:27.935Z,5.63
2023-10-09T01:01:39.438Z,5.20
2023-10-09T01:01:50.939Z,5.10
2023-10-09T01:02:02.348Z,5.60
2023-10-09T01:02:13.762Z,6.05
2023-10-09T01:02:25.184Z,5.85
2023-10-09T01:02:36.756Z,5.75
2023-10-09T01:03:01.255Z,5.18
2023-10-09T01:03:14.985Z,5.22
2023-10-09T01:03:26.546Z,5.07
2023-10-09T01:03:38.778Z,4.95
2023-10-09T01:03:50.666Z,5.25
2023-10-09T01:04:04.985Z,5.65
2023-10-09T01:04:17.180Z,5.70
2023-10-09T01:04:29.082Z,5.45
2023-10-09T01:04:43.720Z,5.63
2023-10-09T01:04:55.540Z,5.90
2023-10-09T01:05:07.196Z,5.43
2023-10-09T01:05:18.602Z,5.20
2023-10-09T01:05:30.294Z,5.00
2023-10-09T01:05:42.768Z,4.60
2023-10-09T01:06:03.002Z,5.30
2023-10-09T01:06:14.422Z,6.70
2023-10-09T01:06:25.877Z,6.20
2023-10-09T01:06:40.101Z,6.10
2023-10-09T01:06:53.587Z,6.20
2023-10-09T01:07:06.399Z,5.97
2023-10-09T01:07:17.871Z,5.97
2023-10-09T01:07:29.989Z,6.03
2023-10-09T01:07:41.449Z,6.07
2023-10-09T01:07:53.127Z,6.07
2023-10-09T01:08:05.041Z,5.57
2023-10-09T01:08:16.579Z,5.50
2023-10-09T01:08:29.982Z,5.85
2023-10-09T01:08:41.723Z,5.97
2023-10-09T01:08:53.298Z,5.50
2023-10-09T01:09:07.678Z,5.93
2023-10-09T01:09:19.118Z,6.20
2023-10-09T01:09:30.676Z,5.80
2023-10-09T01:09:43.731Z,5.55
2023-10-09T01:09:55.167Z,5.45
2023-10-09T01:10:11.904Z,5.38
2023-10-09T01:10:23.312Z,5.88
2023-10-09T01:10:46.055Z,6.25
2023-10-09T01:10:59.443Z,5.63
2023-10-09T01:11:10.933Z,5.93
2023-10-09T01:11:22.421Z,5.78
2023-10-09T01:11:33.828Z,5.43
2023-10-09T01:11:46.217Z,5.15
2023-10-09T01:11:57.692Z,5.45
2023-10-09T01:12:09.232Z,5.75
2023-10-09T01:12:20.805Z,6.00
2023-10-09T01:12:32.907Z,5.85
2023-10-09T01:12:44.437Z,5.97
2023-10-09T01:12:55.972Z,5.55
2023-10-09T01:13:07.445Z,5.53
2023-10-09T01:13:18.892Z,5.97
2023-10-09T01:13:30.725Z,6.30
2023-10-09T01:13:42.595Z,6.37
2023-10-09T01:13:54.562Z,6.05
2023-10-09T01:14:06.833Z,5.53
2023-10-09T01:14:18.251Z,5.78
2023-10-09T01:14:31.717Z,5.60
2023-10-09T01:14:46.441Z,5.85
2023-10-09T01:14:57.997Z,6.05
2023-10-09T01:15:09.887Z,5.97
2023-10-09T01:15:21.594Z,6.25
2023-10-09T01:15:35.927Z,6.70
2023-10-09T01:15:47.474Z,6.55
2023-10-09T01:15:59.089Z,6.35
2023-10-09T01:16:10.865Z,6.63
2023-10-09T01:16:24.727Z,6.45
2023-10-09T01:16:36.323Z,6.40
2023-10-09T01:16:48.151Z,5.97
2023-10-09T01:16:59.687Z,6.38
2023-10-09T01:17:11.541Z,5.93
2023-10-09T01:17:23.613Z,6.00
2023-10-09T01:17:35.686Z,6.28
2023-10-09T01:17:47.297Z,6.53
2023-10-09T01:17:58.848Z,6.38
2023-10-09T01:18:10.684Z,6.10
2023-10-09T01:18:22.419Z,5.80
2023-10-09T01:18:34.158Z,6.15
2023-10-09T01:18:47.372Z,6.13
2023-10-09T01:18:59.175Z,6.72
2023-10-09T01:19:11.008Z,6.05
2023-10-09T01:19:22.628Z,5.57
2023-10-09T01:19:34.166Z,5.97
2023-10-09T01:19:45.661Z,6.18
2023-10-09T01:20:00.090Z,6.43
2023-10-09T01:20:12.236Z,6.60
2023-10-09T01:20:24.011Z,6.40
2023-10-09T01:20:35.485Z,5.90
2023-10-09T01:20:46.955Z,6.00
2023-10-09T01:20:58.921Z,6.18
2023-10-09T01:21:11.368Z,6.07
2023-10-09T01:21:22.876Z,6.03
2023-10-09T01:21:34.340Z,5.85
2023-10-09T01:21:45.920Z,5.87
2023-10-09T01:21:57.615Z,5.75
2023-10-09T01:22:09.156Z,5.88
2023-10-09T01:22:20.582Z,5.90
2023-10-09T01:22:32.076Z,5.78
2023-10-09T01:22:44.343Z,6.10
2023-10-09T01:22:55.768Z,6.50
2023-10-09T01:23:07.188Z,6.43
2023-10-09T01:23:18.639Z,6.53
2023-10-09T01:23:30.088Z,6.35
2023-10-09T01:23:46.650Z,6.70
2023-10-09T01:23:58.552Z,6.65
2023-10-09T01:24:10.275Z,6.15
2023-10-09T01:24:22.199Z,6.20
2023-10-09T01:24:33.704Z,6.30
2023-10-09T01:24:45.294Z,6.20
2023-10-09T01:24:56.803Z,6.65
2023-10-09T01:25:08.499Z,7.18
2023-10-09T01:25:20.128Z,7.07
2023-10-09T01:25:31.622Z,6.68
2023-10-09T01:25:43.103Z,6.53
2023-10-09T01:25:54.547Z,6.60
2023-10-09T01:26:06.067Z,6.57
2023-10-09T01:26:17.448Z,6.57
2023-10-09T01:26:30.145Z,6.78
2023-10-09T01:26:43.385Z,6.70
2023-10-09T01:26:54.783Z,6.35
2023-10-09T01:27:09.386Z,6.68
2023-10-09T01:27:20.864Z,6.95
2023-10-09T01:27:32.611Z,6.97
2023-10-09T01:27:44.066Z,6.55
2023-10-09T01:27:55.557Z,7.10
2023-10-09T01:28:07.008Z,7.22
2023-10-09T01:28:18.390Z,7.70
2023-10-09T01:28:29.869Z,7.35
2023-10-09T01:28:41.311Z,7.00
2023-10-09T01:28:52.780Z,6.32
2023-10-09T01:29:04.309Z,6.60
2023-10-09T01:29:21.647Z,6.65
2023-10-09T01:29:33.072Z,6.85
2023-10-09T01:29:45.828Z,6.93
2023-10-09T01:29:57.260Z,6.80
2023-10-09T01:30:09.327Z,6.93
2023-10-09T01:30:20.757Z,6.68
2023-10-09T01:30:32.993Z,6.85
2023-10-09T01:30:44.461Z,6.95
2023-10-09T01:30:55.919Z,6.78
2023-10-09T01:31:07.391Z,6.68
2023-10-09T01:31:18.878Z,6.93
2023-10-09T01:31:30.443Z,7.07
2023-10-09T01:31:42.933Z,7.13
2023-10-09T01:31:58.079Z,7.38
2023-10-09T01:32:09.771Z,7.65
2023-10-09T01:32:21.221Z,7.32
2023-10-09T01:32:32.990Z,6.85
2023-10-09T01:32:44.480Z,7.07
2023-10-09T01:32:56.071Z,7.30
2023-10-09T01:33:07.696Z,7.40
2023-10-09T01:33:19.265Z,7.55
2023-10-09T01:33:30.824Z,7.82
2023-10-09T01:33:42.694Z,7.72
2023-10-09T01:33:54.800Z,7.68
2023-10-09T01:34:07.378Z,7.82
2023-10-09T01:34:26.209Z,7.47
2023-10-09T01:34:37.696Z,7.18
2023-10-09T01:34:49.272Z,7.45
2023-10-09T01:35:00.785Z,7.53
2023-10-09T01:35:12.330Z,7.53
2023-10-09T01:35:23.717Z,7.43
2023-10-09T01:35:35.199Z,7.40
2023-10-09T01:35:46.672Z,7.35
2023-10-09T01:35:58.103Z,7.45
2023-10-09T01:36:09.638Z,7.70
2023-10-09T01:36:21.220Z,7.78
2023-10-09T01:36:32.714Z,7.60
2023-10-09T01:36:44.195Z,7.60
2023-10-09T01:36:55.692Z,7.78
2023-10-09T01:37:10.998Z,7.93
2023-10-09T01:37:25.543Z,7.95
2023-10-09T01:37:37.048Z,8.30
2023-10-09T01:37:48.512Z,8.30
2023-10-09T01:38:00.082Z,8.00
2023-10-09T01:38:11.599Z,7.65
2023-10-09T01:38:25.756Z,7.65
2023-10-09T01:38:37.223Z,7.88
2023-10-09T01:38:48.702Z,7.40
2023-10-09T01:39:01.800Z,7.03
2023-10-09T01:39:13.291Z,7.15
2023-10-09T01:39:25.193Z,7.90
2023-10-09T01:39:36.799Z,7.88
2023-10-09T01:39:51.784Z,8.02
2023-10-09T01:40:03.447Z,8.00
2023-10-09T01:40:15.287Z,7.82
2023-10-09T01:40:26.729Z,7.80
2023-10-09T01:40:38.547Z,7.80
2023-10-09T01:40:50.057Z,7.70
2023-10-09T01:41:01.543Z,7.70
2023-10-09T01:41:13.016Z,7.60
2023-10-09T01:41:24.522Z,7.72
2023-10-09T01:41:36.050Z,7.60
2023-10-09T01:41:47.805Z,7.28
2023-10-09T01:41:59.324Z,7.38
2023-10-09T01:42:10.830Z,7.75
2023-10-09T01:42:22.481Z,7.97
2023-10-09T01:42:34.019Z,7.53
2023-10-09T01:42:48.696Z,7.43
2023-10-09T01:43:00.120Z,7.93
2023-10-09T01:43:11.525Z,8.05
2023-10-09T01:43:22.887Z,8.10
2023-10-09T01:43:34.681Z,7.70
2023-10-09T01:43:46.343Z,7.50
2023-10-09T01:43:57.745Z,8.10
2023-10-09T01:44:09.185Z,8.50
2023-10-09T01:44:20.636Z,8.20
2023-10-09T01:44:33.005Z,8.02
2023-10-09T01:44:44.837Z,7.57
2023-10-09T01:44:57.087Z,7.80
2023-10-09T01:45:09.396Z,7.85
2023-10-09T01:45:21.174Z,7.70
2023-10-09T01:45:32.780Z,7.50
2023-10-09T01:45:44.270Z,7.78
2023-10-09T01:45:55.746Z,7.47
2023-10-09T01:46:07.272Z,7.50
2023-10-09T01:46:18.836Z,7.40
2023-10-09T01:46:30.284Z,7.70
2023-10-09T01:46:41.722Z,7.72
2023-10-09T01:46:53.683Z,7.50
2023-10-09T01:47:11.416Z,7.13
2023-10-09T01:47:22.953Z,7.47
2023-10-09T01:47:34.478Z,7.75
2023-10-09T01:47:46.054Z,7.38
2023-10-09T01:47:57.502Z,7.88
2023-10-09T01:48:09.314Z,8.10
2023-10-09T01:48:21.029Z,7.95
2023-10-09T01:48:32.586Z,7.47
2023-10-09T01:48:44.318Z,7.25
2023-10-09T01:48:55.709Z,7.47
2023-10-09T01:49:07.178Z,7.90
2023-10-09T01:49:18.798Z,8.30
2023-10-09T01:49:30.295Z,7.97
2023-10-09T01:49:42.008Z,7.53
2023-10-09T01:49:53.441Z,7.40
2023-10-09T01:50:08.877Z,8.13
2023-10-09T01:50:23.674Z,8.20
2023-10-09T01:50:35.193Z,7.80
2023-10-09T01:50:46.761Z,7.57
2023-10-09T01:50:58.155Z,8.02
2023-10-09T01:51:15.374Z,7.90
2023-10-09T01:51:29.429Z,7.65
2023-10-09T01:51:40.926Z,7.60
2023-10-09T01:51:52.398Z,7.32
2023-10-09T01:52:04.601Z,7.13
2023-10-09T01:52:17.170Z,7.13
2023-10-09T01:52:28.844Z,7.30
2023-10-09T01:52:40.230Z,7.50
2023-10-09T01:52:52.247Z,8.00
2023-10-09T01:53:04.052Z,8.27
2023-10-09T01:53:15.675Z,7.77
2023-10-09T01:53:27.636Z,7.05
2023-10-09T01:53:39.156Z,7.45
2023-10-09T01:53:50.619Z,7.53
2023-10-09T01:54:02.176Z,7.65
2023-10-09T01:54:13.880Z,7.75
2023-10-09T01:54:27.444Z,8.05
2023-10-09T01:54:39.988Z,7.60
2023-10-09T01:54:54.582Z,7.20
2023-10-09T01:55:06.560Z,7.22
2023-10-09T01:55:18.297Z,7.53
2023-10-09T01:55:31.565Z,7.65
2023-10-09T01:55:43.077Z,8.07
2023-10-09T01:55:54.564Z,7.90
2023-10-09T01:56:10.599Z,7.50
2023-10-09T01:56:22.040Z,7.38
2023-10-09T01:56:33.502Z,7.45
2023-10-09T01:56:44.911Z,7.85
2023-10-09T01:56:59.174Z,8.20
2023-10-09T01:57:10.795Z,8.25
2023-10-09T01:57:22.481Z,7.75
2023-10-09T01:57:34.428Z,7.72
2023-10-09T01:57:45.904Z,6.88
2023-10-09T01:57:59.351Z,7.30
2023-10-09T01:58:11.021Z,7.50
2023-10-09T01:58:22.444Z,7.47
2023-10-09T01:58:34.286Z,7.40
2023-10-09T01:58:45.752Z,7.78
2023-10-09T01:58:57.228Z,7.72
2023-10-09T01:59:08.609Z,7.70
2023-10-09T01:59:20.044Z,7.63
2023-10-09T01:59:31.499Z,7.70
2023-10-09T01:59:45.500Z,7.47
2023-10-09T01:59:56.998Z,7.50
2023-10-09T02:00:10.163Z,7.82
2023-10-09T02:00:21.746Z,7.88
2023-10-09T02:00:33.520Z,7.57
2023-10-09T02:00:45.021Z,7.70
2023-10-09T02:00:56.603Z,8.18
2023-10-09T02:01:08.155Z,8.50
2023-10-09T02:01:19.662Z,8.23
2023-10-09T02:01:31.149Z,7.80
2023-10-09T02:01:42.709Z,7.47
2023-10-09T02:01:54.273Z,7.47
2023-10-09T02:02:06.378Z,7.50
2023-10-09T02:02:18.258Z,7.30
2023-10-09T02:02:29.779Z,7.20
2023-10-09T02:02:41.343Z,7.40
2023-10-09T02:02:53.042Z,7.07
2023-10-09T02:03:04.973Z,7.15
2023-10-09T02:03:16.833Z,7.30
2023-10-09T02:03:30.035Z,7.95
2023-10-09T02:03:42.177Z,7.90
2023-10-09T02:03:53.774Z,7.65
2023-10-09T02:04:05.385Z,7.57
2023-10-09T02:04:16.932Z,7.97
2023-10-09T02:04:28.842Z,7.43
2023-10-09T02:04:40.321Z,7.38
2023-10-09T02:04:55.718Z,7.43
2023-10-09T02:05:07.763Z,7.78
2023-10-09T02:05:19.216Z,7.70
2023-10-09T02:05:30.584Z,7.47
2023-10-09T02:05:45.095Z,7.28
2023-10-09T02:05:57.117Z,7.55
2023-10-09T02:06:08.869Z,7.88
2023-10-09T02:06:20.374Z,7.97
2023-10-09T02:06:31.930Z,7.40
2023-10-09T02:06:46.466Z,7.03
2023-10-09T02:06:57.912Z,7.03
2023-10-09T02:07:09.309Z,7.63
2023-10-09T02:07:21.671Z,7.70
2023-10-09T02:07:33.032Z,7.75
2023-10-09T02:07:44.421Z,7.70
2023-10-09T02:07:55.959Z,7.70
2023-10-09T02:08:07.443Z,7.95
2023-10-09T02:08:19.190Z,7.75
2023-10-09T02:08:30.634Z,7.72
2023-10-09T02:08:42.013Z,8.02
2023-10-09T02:08:54.827Z,8.02
2023-10-09T02:09:06.582Z,8.02
2023-10-09T02:09:18.197Z,7.82
2023-10-09T02:09:29.656Z,7.80
2023-10-09T02:09:41.116Z,7.70
2023-10-09T02:09:52.499Z,7.82
2023-10-09T02:10:04.097Z,8.10
2023-10-09T02:10:15.604Z,7.90
2023-10-09T02:10:27.283Z,8.15
2023-10-09T02:10:38.924Z,8.30
2023-10-09T02:10:50.664Z,8.23
2023-10-09T02:11:02.407Z,7.82
2023-10-09T02:11:14.048Z,7.90
2023-10-09T02:11:25.524Z,7.82
2023-10-09T02:11:36.958Z,7.70
2023-10-09T02:11:48.881Z,7.53
2023-10-09T02:12:00.272Z,7.60
2023-10-09T02:12:11.935Z,8.00
2023-10-09T02:12:23.502Z,7.60
2023-10-09T02:12:35.011Z,7.40
2023-10-09T02:12:46.506Z,7.63
2023-10-09T02:13:03.078Z,7.78
2023-10-09T02:13:15.244Z,7.80
2023-10-09T02:13:26.697Z,7.82
2023-10-09T02:13:38.204Z,7.80
2023-10-09T02:13:49.665Z,7.90
2023-10-09T02:14:01.109Z,7.70
2023-10-09T02:14:12.734Z,7.68
2023-10-09T02:14:24.355Z,7.75
2023-10-09T02:14:35.826Z,7.60
2023-10-09T02:14:47.281Z,7.80
2023-10-09T02:14:58.698Z,7.78
2023-10-09T02:15:10.890Z,8.30
2023-10-09T02:15:22.442Z,7.68
2023-10-09T02:15:41.341Z,7.55
2023-10-09T02:15:53.222Z,7.63
2023-10-09T02:16:04.885Z,7.68
2023-10-09T02:16:16.423Z,7.65
2023-10-09T02:16:30.745Z,8.00
2023-10-09T02:16:42.485Z,7.85
2023-10-09T02:16:53.931Z,7.30
2023-10-09T02:17:05.335Z,7.38
2023-10-09T02:17:16.828Z,7.68
2023-10-09T02:17:28.397Z,8.07
2023-10-09T02:17:39.937Z,8.23
2023-10-09T02:17:51.442Z,7.93
2023-10-09T02:18:03.154Z,7.60
2023-10-09T02:18:16.696Z,7.55
2023-10-09T02:18:28.392Z,7.68
2023-10-09T02:18:42.440Z,7.57
2023-10-09T02:18:54.521Z,8.18
2023-10-09T02:19:06.139Z,8.82
2023-10-09T02:19:17.532Z,8.27
2023-10-09T02:19:30.555Z,7.95
2023-10-09T02:19:44.760Z,7.97
2023-10-09T02:19:56.154Z,7.75
2023-10-09T02:20:08.061Z,8.20
2023-10-09T02:20:19.459Z,8.38
2023-10-09T02:20:30.856Z,7.88
2023-10-09T02:20:42.277Z,7.88
2023-10-09T02:21:00.255Z,7.78
2023-10-09T02:21:11.724Z,8.35
2023-10-09T02:21:23.745Z,8.18
2023-10-09T02:21:35.554Z,8.15
2023-10-09T02:21:48.791Z,7.68
2023-10-09T02:22:00.735Z,7.47
2023-10-09T02:22:12.182Z,7.38
2023-10-09T02:22:23.689Z,7.68
2023-10-09T02:22:35.137Z,8.02
2023-10-09T02:22:46.541Z,8.02
2023-10-09T02:22:58.377Z,7.75
2023-10-09T02:23:09.788Z,8.07
2023-10-09T02:23:21.254Z,8.07
2023-10-09T02:23:34.694Z,7.93
2023-10-09T02:23:46.124Z,7.82
2023-10-09T02:23:57.646Z,8.10
2023-10-09T02:24:09.215Z,7.72
2023-10-09T02:24:20.718Z,7.53
2023-10-09T02:24:32.877Z,7.78
2023-10-09T02:24:45.661Z,8.02
2023-10-09T02:24:57.121Z,7.97
2023-10-09T02:25:08.989Z,7.13
2023-10-09T02:25:20.763Z,6.68
2023-10-09T02:25:32.145Z,6.47
2023-10-09T02:25:43.679Z,6.88
2023-10-09T02:25:58.828Z,7.25
2023-10-09T02:26:11.097Z,7.70
2023-10-09T02:26:22.541Z,7.82
2023-10-09T02:26:34.276Z,7.85
2023-10-09T02:26:45.663Z,7.53
2023-10-09T02:26:57.167Z,7.30
2023-10-09T02:27:09.874Z,6.90
2023-10-09T02:27:21.561Z,6.85
2023-10-09T02:27:32.995Z,6.95
2023-10-09T02:27:44.510Z,6.85
2023-10-09T02:27:56.021Z,7.13
2023-10-09T02:28:07.416Z,6.90
2023-10-09T02:28:18.934Z,6.72
2023-10-09T02:28:30.420Z,6.68
2023-10-09T02:28:41.841Z,6.80
2023-10-09T02:28:57.116Z,6.78
2023-10-09T02:29:08.601Z,6.78
2023-10-09T02:29:20.017Z,6.60
2023-10-09T02:29:31.512Z,6.50
2023-10-09T02:29:43.022Z,6.97
2023-10-09T02:29:54.569Z,7.30
2023-10-09T02:30:06.747Z,7.18
2023-10-09T02:30:18.342Z,6.85
2023-10-09T02:30:29.897Z,7.22
2023-10-09T02:30:41.304Z,7.32
2023-10-09T02:30:52.860Z,6.78
2023-10-09T02:31:14.028Z,6.32
2023-10-09T02:31:26.924Z,6.10
2023-10-09T02:31:38.449Z,6.18
2023-10-09T02:31:49.862Z,6.40
2023-10-09T02:32:01.320Z,6.50
2023-10-09T02:32:12.702Z,6.35
2023-10-09T02:32:24.144Z,6.18
2023-10-09T02:32:35.605Z,5.82
2023-10-09T02:32:50.120Z,5.95
2023-10-09T02:33:01.694Z,6.45
2023-10-09T02:33:13.246Z,6.65
2023-10-09T02:33:24.767Z,6.10
2023-10-09T02:33:36.479Z,5.78
2023-10-09T02:33:47.915Z,5.72
2023-10-09T02:33:59.374Z,5.63
2023-10-09T02:34:11.386Z,5.75
2023-10-09T02:34:22.883Z,5.65
2023-10-09T02:34:34.297Z,5.85
2023-10-09T02:34:45.791Z,5.32
2023-10-09T02:35:03.250Z,5.18
2023-10-09T02:35:15.434Z,5.50
2023-10-09T02:35:26.818Z,5.38
2023-10-09T02:35:38.272Z,4.90
2023-10-09T02:35:49.704Z,4.97
2023-10-09T02:36:01.117Z,4.88
2023-10-09T02:36:13.496Z,5.00
2023-10-09T02:36:25.187Z,4.72
2023-10-09T02:36:36.835Z,4.35
2023-10-09T02:36:48.255Z,4.45
2023-10-09T02:36:59.663Z,4.45
2023-10-09T02:37:11.186Z,4.72
2023-10-09T02:37:22.584Z,5.07
2023-10-09T02:37:33.992Z,4.93
2023-10-09T02:37:45.432Z,4.50
2023-10-09T02:37:58.271Z,4.55
2023-10-09T02:38:11.501Z,4.53
2023-10-09T02:38:22.964Z,4.43
2023-10-09T02:38:35.457Z,4.38
2023-10-09T02:38:46.937Z,4.60
2023-10-09T02:38:58.336Z,4.70
2023-10-09T02:39:10.669Z,4.65
2023-10-09T02:39:22.407Z,4.57
2023-10-09T02:39:33.873Z,4.53
2023-10-09T02:39:45.442Z,4.55
2023-10-09T02:39:56.959Z,4.70
2023-10-09T02:40:09.095Z,4.90
2023-10-09T02:40:20.518Z,4.82
2023-10-09T02:40:32.024Z,4.60
2023-10-09T02:40:43.469Z,4.70
2023-10-09T02:40:54.876Z,4.50
2023-10-09T02:41:06.311Z,4.20
2023-10-09T02:41:17.777Z,4.18
2023-10-09T02:41:29.565Z,4.07
2023-10-09T02:41:40.973Z,4.25